createdAt,value
2022-09-05T00:01:44.063Z,101911.00
2022-09-05T00:04:24.538Z,101910.97
2022-09-05T00:07:03.550Z,101880.09
2022-09-05T00:10:06.288Z,101900.41
2022-09-05T00:12:36.910Z,101903.03
2022-09-05T00:15:24.601Z,101898.63
2022-09-05T00:22:52.650Z,101903.94
2022-09-05T00:24:32.277Z,101897.75
2022-09-05T00:25:07.212Z,101891.56
2022-09-05T00:27:50.792Z,101899.53
2022-09-05T00:31:07.140Z,101854.44
2022-09-05T00:33:26.090Z,101883.59
2022-09-05T00:36:24.403Z,101869.47
2022-09-05T00:39:01.501Z,101882.72
2022-09-05T00:41:34.187Z,101888.00
2022-09-05T00:44:04.096Z,101895.97
2022-09-05T00:46:38.050Z,101888.03
2022-09-05T00:49:21.331Z,101889.78
2022-09-05T00:51:56.218Z,101864.16
2022-09-05T00:54:45.540Z,101884.50
2022-09-05T00:57:50.910Z,101885.38
2022-09-05T01:00:22.782Z,101850.03
2022-09-05T01:03:28.656Z,101871.22
2022-09-05T01:06:17.362Z,101885.34
2022-09-05T01:09:22.260Z,101889.78
2022-09-05T01:12:03.769Z,101891.56
2022-09-05T01:14:51.659Z,101896.81
2022-09-05T01:17:34.824Z,101847.38
2022-09-05T01:20:31.524Z,101893.31
2022-09-05T01:23:39.979Z,101887.13
2022-09-05T01:26:48.127Z,101893.28
2022-09-05T01:29:26.585Z,101879.13
2022-09-05T01:32:15.354Z,101846.41
2022-09-05T01:35:02.545Z,101878.25
2022-09-05T01:37:39.673Z,101880.91
2022-09-05T01:40:25.198Z,101881.78
2022-09-05T01:43:11.777Z,101873.84
2022-09-05T01:45:52.123Z,101866.69
2022-09-05T01:48:35.093Z,101858.72
2022-09-05T01:51:29.236Z,101880.81
2022-09-05T01:54:24.379Z,101870.16
2022-09-05T01:57:16.137Z,101848.94
2022-09-05T01:59:56.857Z,101858.66
2022-09-05T02:02:50.586Z,101846.28
2022-09-05T02:05:49.167Z,101874.63
2022-09-05T02:08:41.738Z,101862.19
2022-09-05T02:11:13.577Z,101858.66
2022-09-05T02:13:57.440Z,101882.47
2022-09-05T02:16:34.152Z,101884.22
2022-09-05T02:19:14.847Z,101894.84
2022-09-05T02:21:57.490Z,101887.72
2022-09-05T02:24:37.182Z,101875.41
2022-09-05T02:27:48.924Z,101875.31
2022-09-05T02:30:19.716Z,101872.72
2022-09-05T02:33:03.251Z,101859.41
2022-09-05T02:35:46.929Z,101893.88
2022-09-05T02:40:37.661Z,101895.63
2022-09-05T02:45:12.792Z,101860.19
2022-09-05T02:45:24.309Z,101898.28
2022-09-05T02:47:15.976Z,101896.53
2022-09-05T02:52:24.702Z,101894.72
2022-09-05T02:57:39.225Z,101875.28
2022-09-05T02:57:42.130Z,101900.06
2022-09-05T02:59:37.130Z,101898.28
2022-09-05T03:02:26.219Z,101894.72
2022-09-05T03:05:07.709Z,101896.47
2022-09-05T03:08:14.419Z,101882.31
2022-09-05T03:11:44.904Z,101883.25
2022-09-05T03:15:24.303Z,101885.91
2022-09-05T03:18:34.315Z,101848.75
2022-09-05T03:21:41.425Z,101869.06
2022-09-05T03:24:56.043Z,101875.19
2022-09-05T03:28:25.055Z,101886.72
2022-09-05T03:31:22.197Z,101891.06
2022-09-05T03:34:36.256Z,101869.03
2022-09-05T03:37:47.024Z,101890.25
2022-09-05T03:40:58.305Z,101885.84
2022-09-05T03:44:04.860Z,101879.63
2022-09-05T03:47:14.817Z,101865.53
2022-09-05T03:57:04.295Z,101884.94
2022-09-05T03:57:14.939Z,101859.28
2022-09-05T03:57:32.288Z,101890.22
2022-09-05T04:00:09.654Z,101886.66
2022-09-05T04:07:01.985Z,101867.19
2022-09-05T04:08:16.079Z,101878.66
2022-09-05T04:08:47.997Z,101895.44
2022-09-05T04:11:31.819Z,101893.66
2022-09-05T04:14:06.298Z,101893.66
2022-09-05T04:16:49.851Z,101886.56
2022-09-05T04:19:29.427Z,101897.16
2022-09-05T04:22:10.310Z,101895.31
2022-09-05T04:24:46.515Z,101854.66
2022-09-05T04:27:36.812Z,101891.78
2022-09-05T04:30:39.561Z,101852.91
2022-09-05T04:33:23.410Z,101888.28
2022-09-05T04:36:24.968Z,101844.03
2022-09-05T04:39:24.651Z,101871.41
2022-09-05T04:41:56.662Z,101896.22
2022-09-05T04:44:31.653Z,101882.03
2022-09-05T04:47:09.848Z,101866.06
2022-09-05T04:49:52.822Z,101841.31
2022-09-05T04:53:10.340Z,101901.53
2022-09-05T04:55:50.833Z,101889.94
2022-09-05T05:00:06.217Z,101887.22
2022-09-05T05:06:01.409Z,101904.94
2022-09-05T05:06:23.804Z,101912.91
2022-09-05T05:07:18.384Z,101905.00
2022-09-05T05:10:22.108Z,101882.84
2022-09-05T05:17:56.908Z,101887.22
2022-09-05T05:18:12.507Z,101921.00
2022-09-05T05:18:59.987Z,101915.75
2022-09-05T05:21:37.640Z,101892.81
2022-09-05T05:24:14.295Z,101878.69
2022-09-05T05:26:57.897Z,101909.66
2022-09-05T05:29:34.615Z,101910.56
2022-09-05T05:32:07.989Z,101884.94
2022-09-05T05:34:42.533Z,101914.16
2022-09-05T05:37:22.122Z,101905.38
2022-09-05T05:40:00.964Z,101885.94
2022-09-05T05:42:29.267Z,101908.97
2022-09-05T05:44:59.837Z,101878.00
2022-09-05T05:47:32.776Z,101909.03
2022-09-05T05:50:11.412Z,101908.13
2022-09-05T05:53:30.400Z,101919.69
2022-09-05T05:56:40.302Z,101904.69
2022-09-05T05:59:56.439Z,101930.38
2022-09-05T06:03:33.705Z,101921.53
2022-09-05T06:06:33.096Z,101932.16
2022-09-05T06:14:47.942Z,101928.63
2022-09-05T06:15:05.587Z,101937.47
2022-09-05T06:17:05.486Z,101943.69
2022-09-05T06:22:04.172Z,101940.19
2022-09-05T06:24:02.048Z,101945.47
2022-09-05T06:27:21.234Z,101943.66
2022-09-05T06:30:00.949Z,101918.00
2022-09-05T06:32:56.703Z,101909.13
2022-09-05T06:35:38.436Z,101928.53
2022-09-05T06:38:29.005Z,101930.25
2022-09-05T06:41:20.751Z,101931.97
2022-09-05T06:44:31.081Z,101922.13
2022-09-05T06:47:24.217Z,101896.38
2022-09-05T06:50:26.642Z,101925.38
2022-09-05T06:53:44.741Z,101902.22
2022-09-05T06:56:39.301Z,101924.81
2022-09-05T06:59:59.067Z,101935.25
2022-09-05T07:02:59.259Z,101939.53
2022-09-05T07:05:42.853Z,101898.84
2022-09-05T07:08:36.066Z,101931.25
2022-09-05T07:11:16.608Z,101932.03
2022-09-05T07:13:57.690Z,101946.13
2022-09-05T07:16:41.895Z,101901.13
2022-09-05T07:19:34.850Z,101929.09
2022-09-05T07:22:46.700Z,101942.31
2022-09-05T07:25:26.231Z,101934.53
2022-09-05T07:28:29.077Z,101914.00
2022-09-05T07:30:51.899Z,101939.16
2022-09-05T07:33:28.247Z,101931.19
2022-09-05T07:36:04.969Z,101949.50
2022-09-05T07:38:52.309Z,101920.72
2022-09-05T07:41:26.868Z,101929.34
2022-09-05T07:44:00.268Z,101944.16
2022-09-05T07:46:33.529Z,101942.19
2022-09-05T07:49:07.223Z,101928.06
2022-09-05T07:56:49.625Z,101950.59
2022-09-05T07:57:06.383Z,101918.25
2022-09-05T07:57:31.622Z,101963.75
2022-09-05T08:00:25.976Z,101941.56
2022-09-05T08:03:01.891Z,101942.50
2022-09-05T08:05:42.344Z,101962.81
2022-09-05T08:08:15.172Z,101924.13
2022-09-05T08:11:22.019Z,101908.63
2022-09-05T08:14:38.346Z,101945.56
2022-09-05T08:16:46.966Z,101938.09
2022-09-05T08:19:54.293Z,101936.34
2022-09-05T08:22:35.723Z,101927.53
2022-09-05T08:25:15.407Z,101952.97
2022-09-05T08:28:01.918Z,101923.50
2022-09-05T08:30:33.872Z,101950.47
2022-09-05T08:33:11.378Z,101947.81
2022-09-05T08:35:45.318Z,101950.84
2022-09-05T08:38:17.319Z,101944.53
2022-09-05T08:40:56.072Z,101930.72
2022-09-05T08:46:38.031Z,101920.50
2022-09-05T08:46:48.351Z,101946.25
2022-09-05T08:49:46.505Z,101925.97
2022-09-05T08:52:28.016Z,101962.88
2022-09-05T08:55:10.426Z,101949.03
2022-09-05T08:58:25.447Z,101953.56
2022-09-05T09:01:04.791Z,101953.00
2022-09-05T09:03:53.220Z,101923.53
2022-09-05T09:06:58.015Z,101921.50
2022-09-05T09:09:50.754Z,101928.09
2022-09-05T09:13:05.408Z,101909.47
2022-09-05T09:15:40.231Z,101916.13
2022-09-05T09:18:16.312Z,101925.44
2022-09-05T09:20:53.177Z,101922.31
2022-09-05T09:23:44.837Z,101885.06
2022-09-05T09:26:17.110Z,101907.88
2022-09-05T09:28:53.814Z,101883.03
2022-09-05T09:32:06.069Z,101913.47
2022-09-05T09:35:21.338Z,101899.34
2022-09-05T09:38:30.898Z,101910.88
2022-09-05T09:41:33.182Z,101894.97
2022-09-05T09:45:27.471Z,101903.88
2022-09-05T09:48:55.974Z,101900.63
2022-09-05T09:51:55.628Z,101899.88
2022-09-05T09:55:46.335Z,101898.41
2022-09-05T09:58:49.414Z,101892.16
2022-09-05T10:01:36.056Z,101895.16
2022-09-05T10:10:37.742Z,101888.09
2022-09-05T10:10:55.125Z,101886.75
2022-09-05T10:11:55.505Z,101884.97
2022-09-05T10:15:15.142Z,101867.94
2022-09-05T10:18:32.737Z,101870.81
2022-09-05T10:21:24.746Z,101874.09
2022-09-05T10:24:24.814Z,101851.72
2022-09-05T10:27:36.920Z,101867.50
2022-09-05T10:30:33.398Z,101865.84
2022-09-05T10:35:16.997Z,101837.88
2022-09-05T10:36:31.358Z,101832.22
2022-09-05T10:39:19.072Z,101829.81
2022-09-05T10:41:57.219Z,101839.63
2022-09-05T10:44:40.463Z,101840.50
2022-09-05T10:47:24.945Z,101826.91
2022-09-05T10:50:05.447Z,101839.28
2022-09-05T10:52:57.572Z,101832.78
2022-09-05T10:55:31.216Z,101841.56
2022-09-05T10:58:11.834Z,101836.47
2022-09-05T11:02:28.058Z,101812.06
2022-09-05T11:04:04.143Z,101810.63
2022-09-05T11:06:53.809Z,101810.53
2022-09-05T11:09:56.055Z,101822.59
2022-09-05T11:12:41.447Z,101804.84
2022-09-05T11:15:25.364Z,101826.19
2022-09-05T11:17:58.852Z,101823.25
2022-09-05T11:21:01.904Z,101819.69
2022-09-05T11:23:40.120Z,101819.03
2022-09-05T11:26:34.500Z,101828.09
2022-09-05T11:29:08.886Z,101818.63
2022-09-05T11:33:35.915Z,101821.75
2022-09-05T11:39:52.514Z,101815.09
2022-09-05T11:39:55.489Z,101825.75
2022-09-05T11:42:12.501Z,101819.88
2022-09-05T11:45:15.879Z,101806.03
2022-09-05T11:48:18.880Z,101807.03
2022-09-05T11:51:38.851Z,101808.53
2022-09-05T11:55:03.493Z,101810.22
2022-09-05T11:57:50.287Z,101808.41
2022-09-05T12:00:31.515Z,101799.97
2022-09-05T12:03:58.900Z,101797.91
2022-09-05T12:07:15.585Z,101777.16
2022-09-05T12:10:39.843Z,101790.25
2022-09-05T12:13:21.767Z,101805.41
2022-09-05T12:16:08.248Z,101788.88
2022-09-05T12:18:54.221Z,101802.88
2022-09-05T12:21:38.229Z,101789.97
2022-09-05T12:25:25.460Z,101782.69
2022-09-05T12:27:43.795Z,101790.06
2022-09-05T12:30:06.446Z,101784.22
2022-09-05T12:33:52.385Z,101764.78
2022-09-05T12:36:10.066Z,101771.69
2022-09-05T12:40:55.325Z,101780.38
2022-09-05T12:42:15.103Z,101787.28
2022-09-05T12:45:03.013Z,101779.03
2022-09-05T12:47:44.487Z,101782.75
2022-09-05T12:50:18.027Z,101754.38
2022-09-05T12:52:51.457Z,101777.16
2022-09-05T12:55:27.753Z,101785.50
2022-09-05T13:01:41.986Z,101791.31
2022-09-05T13:03:12.926Z,101784.34
2022-09-05T13:04:16.682Z,101777.47
2022-09-05T13:06:47.008Z,101771.16
2022-09-05T13:09:55.348Z,101754.50
2022-09-05T13:14:56.583Z,101771.69
2022-09-05T13:15:23.333Z,101770.19
2022-09-05T13:18:02.886Z,101766.78
2022-09-05T13:20:36.528Z,101759.28
2022-09-05T13:23:18.811Z,101752.63
2022-09-05T13:25:57.950Z,101756.78
2022-09-05T13:28:35.299Z,101756.56
2022-09-05T13:37:55.710Z,101752.38
2022-09-05T13:38:05.802Z,101744.09
2022-09-05T13:38:10.024Z,101719.13
2022-09-05T13:39:55.913Z,101745.13
2022-09-05T13:42:30.388Z,101735.91
2022-09-05T13:45:01.526Z,101723.91
2022-09-05T13:48:02.346Z,101725.81
2022-09-05T13:50:38.093Z,101727.53
2022-09-05T13:53:16.670Z,101731.03
2022-09-05T13:55:54.807Z,101733.44
2022-09-05T13:58:39.858Z,101715.28
2022-09-05T14:02:24.657Z,101723.41
2022-09-05T14:05:19.543Z,101723.84
2022-09-05T14:11:57.180Z,101695.09
2022-09-05T14:17:54.191Z,101700.22
2022-09-05T14:20:43.237Z,101691.84
2022-09-05T14:23:15.488Z,101704.03
2022-09-05T14:25:52.357Z,101716.34
2022-09-05T14:28:27.764Z,101707.72
2022-09-05T14:33:16.759Z,101674.50
2022-09-05T14:37:48.279Z,101687.09
2022-09-05T14:37:59.994Z,101691.59
2022-09-05T14:41:19.084Z,101681.06
2022-09-05T14:44:21.250Z,101676.22
2022-09-05T14:47:35.425Z,101675.44
2022-09-05T14:50:39.285Z,101663.00
2022-09-05T14:57:41.372Z,101658.97
2022-09-05T15:02:51.034Z,101679.19
2022-09-05T15:02:53.942Z,101670.63
2022-09-05T15:05:38.801Z,101670.75
2022-09-05T15:09:11.439Z,101668.09
2022-09-05T15:12:18.911Z,101669.66
2022-09-05T15:13:58.800Z,101664.53
2022-09-05T15:16:29.081Z,101634.28
2022-09-05T15:18:58.429Z,101657.69
2022-09-05T15:21:33.707Z,101639.59
2022-09-05T15:24:21.389Z,101643.28
2022-09-05T15:26:53.781Z,101663.16
2022-09-05T15:29:25.646Z,101649.00
2022-09-05T15:32:13.966Z,101664.91
2022-09-05T15:34:42.481Z,101660.44
2022-09-05T15:37:26.624Z,101659.50
2022-09-05T15:40:23.807Z,101657.66
2022-09-05T15:42:56.621Z,101680.91
2022-09-05T15:45:29.060Z,101647.75
2022-09-05T15:48:12.807Z,101681.09
2022-09-05T15:50:50.345Z,101651.66
2022-09-05T15:53:25.880Z,101668.88
2022-09-05T15:56:01.021Z,101652.19
2022-09-05T15:58:52.675Z,101674.00
2022-09-05T16:01:45.070Z,101671.00
2022-09-05T16:08:45.786Z,101662.91
2022-09-05T16:10:37.383Z,101647.63
2022-09-05T16:10:41.442Z,101649.19
2022-09-05T16:13:13.906Z,101663.53
2022-09-05T16:20:04.530Z,101664.88
2022-09-05T16:23:18.956Z,101677.13
2022-09-05T16:23:29.340Z,101668.94
2022-09-05T16:24:38.617Z,101676.41
2022-09-05T16:27:54.388Z,101668.13
2022-09-05T16:30:26.313Z,101668.44
2022-09-05T16:33:01.591Z,101669.09
2022-09-05T16:35:33.965Z,101690.88
2022-09-05T16:38:48.641Z,101685.34
2022-09-05T16:41:13.268Z,101677.38
2022-09-05T16:43:47.712Z,101673.56
2022-09-05T16:46:22.935Z,101676.34
2022-09-05T16:48:58.729Z,101655.88
2022-09-05T16:51:35.687Z,101670.72
2022-09-05T16:54:13.401Z,101681.69
2022-09-05T16:56:47.767Z,101678.44
2022-09-05T16:59:19.234Z,101656.84
2022-09-05T17:02:07.259Z,101670.56
2022-09-05T17:05:04.619Z,101680.34
2022-09-05T17:08:10.332Z,101662.28
2022-09-05T17:10:57.516Z,101670.22
2022-09-05T17:13:44.270Z,101662.50
2022-09-05T17:16:21.826Z,101649.44
2022-09-05T17:18:52.633Z,101641.50
2022-09-05T17:21:51.426Z,101650.50
2022-09-05T17:29:20.993Z,101669.97
2022-09-05T17:29:35.094Z,101659.63
2022-09-05T17:33:00.289Z,101693.50
2022-09-05T17:35:55.041Z,101694.19
2022-09-05T17:39:21.074Z,101716.19
2022-09-05T17:42:29.198Z,101722.06
2022-09-05T17:45:13.944Z,101708.72
2022-09-05T17:47:49.987Z,101733.25
2022-09-05T17:50:22.449Z,101753.28
2022-09-05T17:53:26.800Z,101737.97
2022-09-05T17:56:14.113Z,101770.47
2022-09-05T17:59:07.137Z,101802.63
2022-09-05T18:01:36.670Z,101833.06
2022-09-05T18:04:16.496Z,101878.72
2022-09-05T18:07:00.711Z,101852.09
2022-09-05T18:10:12.907Z,101906.47
2022-09-05T18:16:13.282Z,101908.81
2022-09-05T18:19:28.217Z,101880.50
2022-09-05T18:21:53.119Z,101879.69
2022-09-05T18:24:33.299Z,101919.25
2022-09-05T18:30:11.238Z,101832.78
2022-09-05T18:32:45.214Z,101860.88
2022-09-05T18:35:37.656Z,101907.53
2022-09-05T18:38:19.197Z,101905.78
2022-09-05T18:41:21.723Z,101845.88
2022-09-05T18:44:13.596Z,101898.75
2022-09-05T18:46:47.256Z,101813.16
2022-09-05T18:50:21.591Z,101873.97
2022-09-05T18:52:23.236Z,101839.50
2022-09-05T18:56:08.949Z,101776.41
2022-09-05T18:57:51.976Z,101765.72
2022-09-05T19:00:44.725Z,101733.75
2022-09-05T19:03:24.916Z,101775.06
2022-09-05T19:06:35.215Z,101735.63
2022-09-05T19:08:56.088Z,101759.34
2022-09-05T19:11:30.813Z,101754.22
2022-09-05T19:14:26.273Z,101720.81
2022-09-05T19:17:07.431Z,101765.88
2022-09-05T19:20:31.766Z,101710.38
2022-09-05T19:23:11.729Z,101725.41
2022-09-05T19:25:44.025Z,101756.34
2022-09-05T19:35:33.282Z,101742.13
2022-09-05T19:37:08.355Z,101751.91
2022-09-05T19:37:09.791Z,101702.56
2022-09-05T19:43:48.400Z,101721.81
2022-09-05T19:47:35.923Z,101732.44
2022-09-05T19:47:51.475Z,101741.41
2022-09-05T19:48:26.675Z,101730.84
2022-09-05T19:50:57.599Z,101746.66
2022-09-05T19:53:26.216Z,101728.03
2022-09-05T19:55:56.160Z,101790.72
2022-09-05T19:58:25.700Z,101803.38
2022-09-05T20:01:08.399Z,101748.81
2022-09-05T20:03:44.596Z,101796.47
2022-09-05T20:06:28.816Z,101801.78
2022-09-05T20:09:15.358Z,101777.78
2022-09-05T20:11:50.046Z,101848.50
2022-09-05T20:14:23.013Z,101853.75
2022-09-05T20:16:54.342Z,101854.78
2022-09-05T20:19:29.021Z,101848.72
2022-09-05T20:22:21.208Z,101816.19
2022-09-05T20:24:50.533Z,101866.56
2022-09-05T20:27:27.386Z,101846.31
2022-09-05T20:30:00.393Z,101880.78
2022-09-05T20:32:39.543Z,101886.94
2022-09-05T20:43:07.605Z,101969.19
2022-09-05T20:43:22.467Z,101987.75
2022-09-05T20:43:23.803Z,101974.53
2022-09-05T20:44:22.656Z,101945.38
2022-09-05T20:49:27.387Z,101954.16
2022-09-05T20:54:19.758Z,101951.47
2022-09-05T20:54:21.531Z,101955.88
2022-09-05T20:55:42.441Z,101970.91
2022-09-05T20:58:15.002Z,101960.41
2022-09-05T21:01:21.014Z,101917.06
2022-09-05T21:03:45.326Z,101964.75
2022-09-05T21:06:22.635Z,101931.25
2022-09-05T21:08:56.030Z,101885.31
2022-09-05T21:11:33.781Z,101958.56
2022-09-05T21:14:05.063Z,101903.78
2022-09-05T21:16:49.387Z,101862.19
2022-09-05T21:19:26.596Z,101864.81
2022-09-05T21:22:06.695Z,101856.88
2022-09-05T21:24:35.559Z,101854.28
2022-09-05T21:27:22.587Z,101858.72
2022-09-05T21:29:58.833Z,101906.41
2022-09-05T21:32:38.127Z,101864.03
2022-09-05T21:35:33.535Z,101894.94
2022-09-05T21:38:01.590Z,101882.56
2022-09-05T21:40:30.150Z,101871.94
2022-09-05T21:46:38.650Z,101843.72
2022-09-05T21:47:40.085Z,101885.19
2022-09-05T21:48:39.374Z,101898.47
2022-09-05T21:51:10.310Z,101867.50
2022-09-05T21:58:55.224Z,101878.97
2022-09-05T21:59:27.729Z,101848.06
2022-09-05T21:59:40.085Z,101893.94
2022-09-05T22:02:16.819Z,101904.50
2022-09-05T22:04:47.133Z,101915.97
2022-09-05T22:07:31.924Z,101882.50
2022-09-05T22:10:03.485Z,101901.97
2022-09-05T22:12:36.770Z,101936.50
2022-09-05T22:15:26.411Z,101953.31
2022-09-05T22:18:17.439Z,101810.28
2022-09-05T22:21:31.634Z,101910.88
2022-09-05T22:23:44.356Z,101864.84
2022-09-05T22:26:13.637Z,101883.25
2022-09-05T22:28:48.775Z,101843.44
2022-09-05T22:31:17.592Z,101686.41
2022-09-05T22:33:46.352Z,101833.72
2022-09-05T22:36:20.856Z,101684.69
2022-09-05T22:38:49.196Z,101747.25
2022-09-05T22:41:17.622Z,101672.22
2022-09-05T22:43:58.619Z,101777.06
2022-09-05T22:46:27.033Z,101714.50
2022-09-05T22:48:55.447Z,101756.94
2022-09-05T22:51:25.172Z,101721.63
2022-09-05T22:53:53.469Z,101540.94
2022-09-05T22:56:32.312Z,101613.22
2022-09-05T22:59:00.993Z,101718.06
2022-09-05T23:01:29.386Z,101723.28
2022-09-05T23:03:57.808Z,101731.13
2022-09-05T23:06:27.689Z,101734.56
2022-09-05T23:08:56.029Z,101734.63
2022-09-05T23:11:24.482Z,101721.44
2022-09-05T23:13:52.928Z,101679.91
2022-09-05T23:16:21.686Z,101706.38
2022-09-05T23:18:50.042Z,101702.75
2022-09-05T23:21:19.812Z,101701.81
2022-09-05T23:23:49.518Z,101703.63
2022-09-05T23:26:18.266Z,101702.66
2022-09-05T23:28:46.678Z,101662.13
2022-09-05T23:31:15.113Z,101710.63
2022-09-05T23:33:43.672Z,101692.22
2022-09-05T23:36:14.641Z,101726.69
2022-09-05T23:38:43.808Z,101742.56
2022-09-05T23:41:15.850Z,101765.56
2022-09-05T23:43:44.624Z,101714.41
2022-09-05T23:46:13.366Z,101757.63
2022-09-05T23:48:42.426Z,101686.28
2022-09-05T23:51:12.720Z,101717.94
2022-09-05T23:53:41.723Z,101748.00
2022-09-05T23:56:12.154Z,101740.91
2022-09-05T23:58:42.022Z,101743.59
